Time;durP1;ratioP1;P1;durP2;ratioP2;P2;SDS_P1;SDS_P2;PMS_P1;PMS_P2;Temp;Humidity;BMP_temperature;BMP_pressure;BME280_temperature;BME280_humidity;BME280_pressure;Samples;Min_cycle;Max_cycle;Signal;HPM_P1;HPM_P2
2023/06/24 00:01:17;;;;;;;;;;;18.00;99.90;;;;;;5135282;27;19908;-47
2023/06/24 00:03:46;;;;;;;;;;;17.90;99.90;;;;;;5136215;27;19907;-43
2023/06/24 00:06:17;;;;;;;;;;;17.90;99.90;;;;;;5135459;27;19915;-43
2023/06/24 00:08:47;;;;;;;;;;;17.90;99.90;;;;;;5135275;27;20045;-41
2023/06/24 00:11:13;;;;;;;;;;;17.90;99.90;;;;;;5136012;27;19920;-43
2023/06/24 00:13:42;;;;;;;;;;;17.80;99.90;;;;;;5135859;27;19912;-42
2023/06/24 00:16:07;;;;;;;;;;;17.70;99.90;;;;;;5134903;27;19919;-44
2023/06/24 00:18:33;;;;;;;;;;;17.70;99.90;;;;;;5135801;27;19907;-45
2023/06/24 00:20:59;;;;;;;;;;;17.70;99.90;;;;;;5135901;27;19908;-43
2023/06/24 00:23:24;;;;;;;;;;;17.60;99.90;;;;;;5134886;27;19951;-43
2023/06/24 00:25:54;;;;;;;;;;;17.60;99.90;;;;;;5135814;27;19914;-43
2023/06/24 00:28:19;;;;;;;;;;;17.50;99.90;;;;;;5135684;27;19961;-41
2023/06/24 00:30:46;;;;;;;;;;;17.50;99.90;;;;;;5134844;27;20368;-42
2023/06/24 00:33:13;;;;;;;;;;;17.50;99.90;;;;;;5135450;27;20369;-43
2023/06/24 00:35:39;;;;;;;;;;;17.50;99.90;;;;;;5135134;27;19964;-43
2023/06/24 00:38:04;;;;;;;;;;;17.50;99.90;;;;;;5134445;27;19923;-43
2023/06/24 00:40:30;;;;;;;;;;;17.40;99.90;;;;;;5135439;27;19908;-42
2023/06/24 00:42:55;;;;;;;;;;;17.40;99.90;;;;;;5134653;27;20381;-42
2023/06/24 00:45:22;;;;;;;;;;;17.40;99.90;;;;;;5135331;27;20002;-43
2023/06/24 00:47:48;;;;;;;;;;;17.30;99.90;;;;;;5135304;27;19907;-42
2023/06/24 00:50:14;;;;;;;;;;;17.30;99.90;;;;;;5134412;27;19956;-44
2023/06/24 00:52:42;;;;;;;;;;;17.30;99.90;;;;;;5135073;27;19939;-42
2023/06/24 00:55:14;;;;;;;;;;;17.20;99.90;;;;;;5135129;27;19960;-42
2023/06/24 00:57:41;;;;;;;;;;;17.10;99.90;;;;;;5134321;27;20339;-43
2023/06/24 01:00:13;;;;;;;;;;;17.10;99.90;;;;;;5135010;27;19907;-42
2023/06/24 01:02:39;;;;;;;;;;;17.10;99.90;;;;;;5134541;27;19914;-45
2023/06/24 01:05:07;;;;;;;;;;;17.00;99.90;;;;;;5133920;27;19908;-43
2023/06/24 01:07:35;;;;;;;;;;;17.00;99.90;;;;;;5134804;27;19915;-42
2023/06/24 01:10:01;;;;;;;;;;;17.00;99.90;;;;;;5134878;27;19959;-43
2023/06/24 01:12:27;;;;;;;;;;;17.00;99.90;;;;;;5133981;27;19911;-41
2023/06/24 01:14:53;;;;;;;;;;;16.90;99.90;;;;;;5134484;27;20373;-42
2023/06/24 01:17:21;;;;;;;;;;;16.90;99.90;;;;;;5134745;27;20004;-42
2023/06/24 01:19:50;;;;;;;;;;;16.90;99.90;;;;;;5134009;27;19914;-41
2023/06/24 01:22:40;;;;;;;;;;;16.90;99.90;;;;;;5134502;27;20378;-43
2023/06/24 01:25:24;;;;;;;;;;;16.80;99.90;;;;;;5133614;27;20419;-42
2023/06/24 01:28:09;;;;;;;;;;;16.80;99.90;;;;;;5134565;27;19946;-43
2023/06/24 01:30:53;;;;;;;;;;;16.70;99.90;;;;;;5134617;27;19916;-43
2023/06/24 01:33:22;;;;;;;;;;;16.70;99.90;;;;;;5133671;27;19911;-42
2023/06/24 01:35:47;;;;;;;;;;;16.60;99.90;;;;;;5134373;27;19907;-43
2023/06/24 01:38:17;;;;;;;;;;;16.50;99.90;;;;;;5134175;27;19980;-45
2023/06/24 01:40:44;;;;;;;;;;;16.50;99.90;;;;;;5133612;27;19911;-41
2023/06/24 01:43:11;;;;;;;;;;;16.50;99.90;;;;;;5134076;27;19915;-44
2023/06/24 01:45:40;;;;;;;;;;;16.40;99.90;;;;;;5134138;27;19962;-42
2023/06/24 01:48:14;;;;;;;;;;;16.40;99.90;;;;;;5133356;27;20009;-43
2023/06/24 01:50:42;;;;;;;;;;;16.30;99.90;;;;;;5134030;27;19969;-43
2023/06/24 01:53:08;;;;;;;;;;;16.30;99.90;;;;;;5133410;27;19929;-41
2023/06/24 01:55:34;;;;;;;;;;;16.30;99.90;;;;;;5134068;27;19908;-43
2023/06/24 01:58:01;;;;;;;;;;;16.20;99.90;;;;;;5134333;27;19907;-44
2023/06/24 02:00:27;;;;;;;;;;;16.10;99.90;;;;;;5133239;27;19911;-43
2023/06/24 02:02:54;;;;;;;;;;;16.10;99.90;;;;;;5134012;27;19907;-45
2023/06/24 02:05:20;;;;;;;;;;;16.10;99.90;;;;;;5133905;27;19960;-44
2023/06/24 02:07:49;;;;;;;;;;;16.10;99.90;;;;;;5133309;27;19932;-43
2023/06/24 02:10:15;;;;;;;;;;;16.10;99.90;;;;;;5111960;27;19911;-44
2023/06/24 02:12:41;;;;;;;;;;;16.10;99.90;;;;;;5113273;28;20011;-41
2023/06/24 02:15:08;;;;;;;;;;;16.10;99.90;;;;;;5125924;27;19911;-45
2023/06/24 02:17:34;;;;;;;;;;;16.10;99.90;;;;;;5133740;27;19908;-43
2023/06/24 02:19:59;;;;;;;;;;;16.00;99.90;;;;;;5133796;27;20441;-42
2023/06/24 02:22:25;;;;;;;;;;;16.00;99.90;;;;;;5132529;27;20293;-42
2023/06/24 02:24:51;;;;;;;;;;;16.00;99.90;;;;;;5133807;28;19907;-42
2023/06/24 02:27:17;;;;;;;;;;;16.00;99.90;;;;;;5133704;28;20377;-42
2023/06/24 02:29:42;;;;;;;;;;;16.00;99.90;;;;;;5132846;28;19995;-42
2023/06/24 02:32:08;;;;;;;;;;;16.00;99.90;;;;;;5133664;28;19916;-42
2023/06/24 02:34:34;;;;;;;;;;;16.00;99.90;;;;;;5133300;28;19915;-41
2023/06/24 02:36:59;;;;;;;;;;;15.90;99.90;;;;;;5132854;28;20377;-43
2023/06/24 02:39:25;;;;;;;;;;;15.90;99.90;;;;;;5133360;28;19925;-42
2023/06/24 02:41:50;;;;;;;;;;;15.90;99.90;;;;;;5133557;28;20392;-43
2023/06/24 02:44:16;;;;;;;;;;;15.80;99.90;;;;;;5132733;28;19907;-43
2023/06/24 02:46:43;;;;;;;;;;;15.80;99.90;;;;;;5133633;28;20395;-43
2023/06/24 02:49:09;;;;;;;;;;;15.80;99.90;;;;;;5133595;28;19907;-43
2023/06/24 02:51:34;;;;;;;;;;;15.80;99.90;;;;;;5132573;28;20014;-45
2023/06/24 02:54:01;;;;;;;;;;;15.70;99.90;;;;;;5133408;28;20006;-44
2023/06/24 02:56:27;;;;;;;;;;;15.70;99.90;;;;;;5132328;28;20292;-43
2023/06/24 02:58:53;;;;;;;;;;;15.60;99.90;;;;;;5133353;28;19907;-43
2023/06/24 03:01:24;;;;;;;;;;;15.60;99.90;;;;;;5133299;28;19914;-43
2023/06/24 03:03:54;;;;;;;;;;;15.60;99.90;;;;;;5132717;28;19907;-41
2023/06/24 03:06:20;;;;;;;;;;;15.50;99.90;;;;;;5133234;28;19907;-42
2023/06/24 03:08:46;;;;;;;;;;;15.50;99.90;;;;;;5133456;28;19907;-42
2023/06/24 03:11:14;;;;;;;;;;;15.40;99.90;;;;;;5132464;28;20262;-44
2023/06/24 03:13:40;;;;;;;;;;;15.50;99.90;;;;;;5133355;28;19907;-44
2023/06/24 03:16:05;;;;;;;;;;;15.50;99.90;;;;;;5133187;28;19952;-42
2023/06/24 03:18:31;;;;;;;;;;;15.50;99.90;;;;;;5132366;28;19914;-45
2023/06/24 03:20:57;;;;;;;;;;;15.50;99.90;;;;;;5133275;28;19998;-42
2023/06/24 03:23:22;;;;;;;;;;;15.50;99.90;;;;;;5132721;28;19918;-42
2023/06/24 03:25:48;;;;;;;;;;;15.50;99.90;;;;;;5135137;27;19907;-42
2023/06/24 03:28:13;;;;;;;;;;;15.50;99.90;;;;;;5136832;27;20338;-42
2023/06/24 03:30:39;;;;;;;;;;;15.50;99.90;;;;;;5136794;27;19916;-43
2023/06/24 03:33:05;;;;;;;;;;;15.50;99.90;;;;;;5135831;27;20242;-41
2023/06/24 03:35:32;;;;;;;;;;;15.50;99.90;;;;;;5136719;27;19926;-45
2023/06/24 03:37:58;;;;;;;;;;;15.60;99.90;;;;;;5136394;27;19926;-43
2023/06/24 03:40:23;;;;;;;;;;;15.60;99.90;;;;;;5135851;27;19907;-42
2023/06/24 03:42:49;;;;;;;;;;;15.60;99.90;;;;;;5136619;27;19918;-43
2023/06/24 03:45:14;;;;;;;;;;;15.60;99.90;;;;;;5136468;27;20435;-44
2023/06/24 03:47:41;;;;;;;;;;;15.70;99.90;;;;;;5134999;27;20409;-41
2023/06/24 03:50:07;;;;;;;;;;;15.70;99.90;;;;;;5136362;27;19943;-41
2023/06/24 03:52:34;;;;;;;;;;;15.70;99.90;;;;;;5136351;27;19930;-43
2023/06/24 03:55:01;;;;;;;;;;;15.70;99.90;;;;;;5135372;27;19911;-44
2023/06/24 03:57:26;;;;;;;;;;;15.70;99.90;;;;;;5136333;27;20010;-43
2023/06/24 03:59:52;;;;;;;;;;;15.70;99.90;;;;;;5135607;27;19994;-43
2023/06/24 04:02:17;;;;;;;;;;;15.80;99.90;;;;;;5136193;27;19907;-43
2023/06/24 04:04:43;;;;;;;;;;;15.80;99.90;;;;;;5136319;27;19994;-44
2023/06/24 04:07:08;;;;;;;;;;;15.90;99.90;;;;;;5135301;27;20014;-43
2023/06/24 04:09:34;;;;;;;;;;;15.90;99.90;;;;;;5136084;27;19907;-41
2023/06/24 04:12:00;;;;;;;;;;;15.90;99.90;;;;;;5135958;27;20365;-43
2023/06/24 04:14:25;;;;;;;;;;;15.90;99.90;;;;;;5135493;27;19907;-42
2023/06/24 04:16:51;;;;;;;;;;;16.00;99.90;;;;;;5136037;27;20373;-42
2023/06/24 04:19:16;;;;;;;;;;;16.00;99.90;;;;;;5135871;27;19907;-42
2023/06/24 04:21:41;;;;;;;;;;;16.00;99.90;;;;;;5135099;27;19907;-41
2023/06/24 04:24:07;;;;;;;;;;;16.10;99.90;;;;;;5135188;27;19990;-46
2023/06/24 04:26:33;;;;;;;;;;;16.10;99.90;;;;;;5135648;27;19914;-43
2023/06/24 04:28:58;;;;;;;;;;;16.10;99.90;;;;;;5134555;27;20373;-42
2023/06/24 04:31:24;;;;;;;;;;;16.10;99.90;;;;;;5135567;27;19916;-44
2023/06/24 04:33:49;;;;;;;;;;;16.20;99.90;;;;;;5134470;27;19934;-42
2023/06/24 04:36:16;;;;;;;;;;;16.20;99.90;;;;;;5116467;27;19912;-42
2023/06/24 04:38:41;;;;;;;;;;;16.20;99.90;;;;;;5118570;27;20285;-43
2023/06/24 04:41:07;;;;;;;;;;;16.30;99.90;;;;;;5132846;27;19912;-43
2023/06/24 04:43:32;;;;;;;;;;;16.30;99.90;;;;;;5134065;27;20157;-42
2023/06/24 04:45:58;;;;;;;;;;;16.40;99.90;;;;;;5134855;27;19914;-43
2023/06/24 04:48:24;;;;;;;;;;;16.40;99.90;;;;;;5134803;27;19907;-43
2023/06/24 04:50:49;;;;;;;;;;;16.50;99.90;;;;;;5133829;27;20437;-42
2023/06/24 04:53:15;;;;;;;;;;;16.50;99.90;;;;;;5134873;27;19998;-45
2023/06/24 04:55:41;;;;;;;;;;;16.60;99.90;;;;;;5134849;27;20310;-42
2023/06/24 04:58:06;;;;;;;;;;;16.60;99.90;;;;;;5134363;27;19961;-42
2023/06/24 05:00:32;;;;;;;;;;;16.60;99.90;;;;;;5134808;27;20238;-44
2023/06/24 05:02:57;;;;;;;;;;;16.70;99.90;;;;;;5135024;27;19907;-43
2023/06/24 05:05:23;;;;;;;;;;;16.80;99.90;;;;;;5134416;27;19908;-42
2023/06/24 05:07:48;;;;;;;;;;;16.80;99.90;;;;;;5134989;27;19908;-42
2023/06/24 05:10:14;;;;;;;;;;;16.80;99.90;;;;;;5134060;27;20004;-42
2023/06/24 05:12:40;;;;;;;;;;;16.90;99.90;;;;;;5134893;27;19931;-42
2023/06/24 05:15:06;;;;;;;;;;;17.00;99.90;;;;;;5134906;27;20273;-45
2023/06/24 05:17:31;;;;;;;;;;;17.00;99.90;;;;;;5134147;27;20360;-42
2023/06/24 05:19:57;;;;;;;;;;;17.10;99.90;;;;;;5134695;27;19907;-43
2023/06/24 05:22:22;;;;;;;;;;;17.10;99.90;;;;;;5134581;27;19913;-43
2023/06/24 05:24:48;;;;;;;;;;;17.20;99.90;;;;;;5133511;27;19914;-43
2023/06/24 05:27:13;;;;;;;;;;;17.20;99.90;;;;;;5134315;27;19911;-42
2023/06/24 05:29:38;;;;;;;;;;;17.20;99.90;;;;;;5134521;27;19907;-42
2023/06/24 05:32:04;;;;;;;;;;;17.30;99.90;;;;;;5133519;27;19923;-42
2023/06/24 05:34:30;;;;;;;;;;;17.40;99.90;;;;;;5134361;27;20273;-43
2023/06/24 05:36:56;;;;;;;;;;;17.40;99.90;;;;;;5134336;27;19908;-42
2023/06/24 05:39:21;;;;;;;;;;;17.40;99.90;;;;;;5133258;27;19920;-42
2023/06/24 05:41:48;;;;;;;;;;;17.50;99.90;;;;;;5134363;27;19960;-44
2023/06/24 05:44:14;;;;;;;;;;;17.60;99.90;;;;;;5134184;27;19913;-43
2023/06/24 05:46:39;;;;;;;;;;;17.60;99.90;;;;;;5133545;27;19907;-43
2023/06/24 05:49:05;;;;;;;;;;;17.70;99.90;;;;;;5133978;27;19994;-42
2023/06/24 05:51:30;;;;;;;;;;;17.80;99.90;;;;;;5132970;27;19945;-42
2023/06/24 05:53:56;;;;;;;;;;;17.80;99.90;;;;;;5124625;27;19947;-42
2023/06/24 05:56:22;;;;;;;;;;;17.90;99.90;;;;;;5133352;27;20409;-41
2023/06/24 05:58:48;;;;;;;;;;;18.00;99.90;;;;;;5134183;27;19912;-42
2023/06/24 06:01:13;;;;;;;;;;;18.00;99.90;;;;;;5133125;27;20361;-43
2023/06/24 06:03:39;;;;;;;;;;;18.10;99.90;;;;;;5133963;27;20366;-42
2023/06/24 06:06:05;;;;;;;;;;;18.20;99.90;;;;;;5126608;27;19919;-43
2023/06/24 06:08:30;;;;;;;;;;;18.30;99.90;;;;;;5132634;27;19908;-43
2023/06/24 06:10:56;;;;;;;;;;;18.40;99.90;;;;;;5133609;27;20014;-43
2023/06/24 06:13:21;;;;;;;;;;;18.50;99.90;;;;;;5132932;27;19951;-44
2023/06/24 06:15:47;;;;;;;;;;;18.60;99.90;;;;;;5133839;27;19989;-43
2023/06/24 06:18:12;;;;;;;;;;;18.70;99.90;;;;;;5133727;27;19918;-43
2023/06/24 06:20:38;;;;;;;;;;;18.70;99.90;;;;;;5129162;27;19936;-43
2023/06/24 06:23:04;;;;;;;;;;;18.80;99.90;;;;;;5132994;27;19912;-44
2023/06/24 06:25:29;;;;;;;;;;;18.90;99.90;;;;;;5131730;27;19919;-44
2023/06/24 06:27:54;;;;;;;;;;;19.00;99.90;;;;;;5132103;28;20335;-42
2023/06/24 06:30:20;;;;;;;;;;;19.10;99.90;;;;;;5132217;28;19912;-43
2023/06/24 06:32:45;;;;;;;;;;;19.10;99.90;;;;;;5132693;28;20457;-44
2023/06/24 06:35:11;;;;;;;;;;;19.20;99.90;;;;;;5132253;28;19912;-43
2023/06/24 06:37:37;;;;;;;;;;;19.30;99.90;;;;;;5132746;28;19925;-43
2023/06/24 06:40:02;;;;;;;;;;;19.50;99.90;;;;;;5132669;28;19947;-43
2023/06/24 06:42:29;;;;;;;;;;;19.50;99.90;;;;;;5132375;28;19941;-42
2023/06/24 06:44:54;;;;;;;;;;;19.60;99.90;;;;;;5127323;28;19947;-43
2023/06/24 06:47:20;;;;;;;;;;;19.70;99.90;;;;;;5118131;28;19958;-43
2023/06/24 06:49:45;;;;;;;;;;;19.70;99.90;;;;;;5115745;28;20259;-41
2023/06/24 06:52:11;;;;;;;;;;;19.80;99.90;;;;;;5130924;28;19915;-43
2023/06/24 06:54:36;;;;;;;;;;;19.90;99.90;;;;;;5130446;28;20365;-42
2023/06/24 06:57:03;;;;;;;;;;;19.90;99.90;;;;;;5112125;28;19919;-44
2023/06/24 06:59:28;;;;;;;;;;;20.10;99.90;;;;;;5113455;28;19907;-43
2023/06/24 07:01:53;;;;;;;;;;;20.10;99.90;;;;;;5130337;27;19930;-42
2023/06/24 07:04:19;;;;;;;;;;;20.20;99.90;;;;;;5136577;27;19907;-42
2023/06/24 07:06:44;;;;;;;;;;;20.20;99.90;;;;;;5119361;27;19918;-43
2023/06/24 07:09:10;;;;;;;;;;;20.40;99.90;;;;;;5130288;27;20372;-43
2023/06/24 07:11:35;;;;;;;;;;;20.50;99.90;;;;;;5135824;27;19919;-42
2023/06/24 07:14:01;;;;;;;;;;;20.70;99.90;;;;;;5121720;27;19919;-43
2023/06/24 07:16:26;;;;;;;;;;;20.80;99.90;;;;;;5125367;27;20362;-45
2023/06/24 07:18:52;;;;;;;;;;;20.90;99.90;;;;;;5115779;27;19989;-46
2023/06/24 07:21:17;;;;;;;;;;;21.00;99.90;;;;;;5123549;27;20052;-45
2023/06/24 07:23:43;;;;;;;;;;;21.10;99.90;;;;;;5118436;27;19912;-42
2023/06/24 07:26:08;;;;;;;;;;;21.20;99.90;;;;;;5117591;27;19912;-43
2023/06/24 07:28:34;;;;;;;;;;;21.40;99.90;;;;;;5120525;27;20032;-44
2023/06/24 07:30:59;;;;;;;;;;;21.50;99.90;;;;;;5127751;27;20390;-42
2023/06/24 07:33:25;;;;;;;;;;;21.60;99.90;;;;;;5121478;27;19912;-43
2023/06/24 07:35:51;;;;;;;;;;;21.80;99.90;;;;;;5128283;27;19908;-42
2023/06/24 07:38:16;;;;;;;;;;;21.90;99.90;;;;;;5129534;27;19930;-44
2023/06/24 07:40:42;;;;;;;;;;;21.90;99.90;;;;;;5136189;27;19911;-43
2023/06/24 07:43:07;;;;;;;;;;;22.00;99.90;;;;;;5135901;27;19912;-43
2023/06/24 07:45:33;;;;;;;;;;;22.20;99.90;;;;;;5135764;27;19965;-43
2023/06/24 07:47:58;;;;;;;;;;;22.30;99.90;;;;;;5136134;27;20013;-44
2023/06/24 07:50:24;;;;;;;;;;;22.50;99.90;;;;;;5125648;27;19915;-44
2023/06/24 07:52:49;;;;;;;;;;;22.70;99.90;;;;;;5126540;27;19918;-42
2023/06/24 07:55:15;;;;;;;;;;;22.80;99.90;;;;;;5125422;27;20289;-43
2023/06/24 07:57:44;;;;;;;;;;;23.00;99.90;;;;;;5136543;27;19908;-41
2023/06/24 08:00:11;;;;;;;;;;;23.10;99.90;;;;;;5124189;27;19912;-44
2023/06/24 08:02:36;;;;;;;;;;;23.20;99.90;;;;;;5115082;28;20266;-44
2023/06/24 08:05:01;;;;;;;;;;;23.20;99.90;;;;;;5115535;28;19915;-44
2023/06/24 08:07:27;;;;;;;;;;;23.20;99.90;;;;;;5114796;28;19974;-43
2023/06/24 08:09:52;;;;;;;;;;;23.10;99.90;;;;;;5115627;28;20182;-44
2023/06/24 08:12:18;;;;;;;;;;;23.10;99.90;;;;;;5115283;28;19922;-44
2023/06/24 08:14:44;;;;;;;;;;;23.00;99.90;;;;;;5130845;27;19919;-45
2023/06/24 08:17:10;;;;;;;;;;;23.00;99.90;;;;;;5136472;27;19946;-46
2023/06/24 08:19:35;;;;;;;;;;;23.00;99.90;;;;;;5136539;27;19966;-44
2023/06/24 08:22:00;;;;;;;;;;;23.10;99.90;;;;;;5135783;27;20260;-44
2023/06/24 08:24:26;;;;;;;;;;;23.20;99.90;;;;;;5136518;27;19914;-45
2023/06/24 08:26:53;;;;;;;;;;;23.30;99.90;;;;;;5136528;27;19986;-43
2023/06/24 08:29:18;;;;;;;;;;;23.30;99.90;;;;;;5135932;27;19958;-44
2023/06/24 08:31:44;;;;;;;;;;;23.30;99.90;;;;;;5136321;27;20368;-46
2023/06/24 08:34:09;;;;;;;;;;;23.40;99.90;;;;;;5135869;27;19908;-43
2023/06/24 08:36:37;;;;;;;;;;;23.60;99.90;;;;;;5136080;27;19911;-43
2023/06/24 08:39:02;;;;;;;;;;;23.60;99.90;;;;;;5136086;27;19919;-44
2023/06/24 08:41:28;;;;;;;;;;;23.70;99.90;;;;;;5135661;27;19952;-42
2023/06/24 08:43:54;;;;;;;;;;;23.70;99.90;;;;;;5135934;27;19955;-43
2023/06/24 08:46:21;;;;;;;;;;;23.70;99.90;;;;;;5136006;27;20354;-42
2023/06/24 08:48:48;;;;;;;;;;;23.70;99.90;;;;;;5135497;27;19960;-46
2023/06/24 08:51:17;;;;;;;;;;;23.80;99.90;;;;;;5135789;27;19944;-44
2023/06/24 08:53:46;;;;;;;;;;;23.80;99.90;;;;;;5136080;27;19911;-43
2023/06/24 08:56:13;;;;;;;;;;;23.90;99.90;;;;;;5135263;27;19907;-43
2023/06/24 08:58:39;;;;;;;;;;;24.00;99.90;;;;;;5135533;27;19972;-44
2023/06/24 09:01:05;;;;;;;;;;;24.10;99.90;;;;;;5135479;27;20311;-44
2023/06/24 09:03:31;;;;;;;;;;;24.20;99.90;;;;;;5134883;27;20000;-43
2023/06/24 09:05:57;;;;;;;;;;;24.30;99.90;;;;;;5135736;27;19954;-47
2023/06/24 09:08:22;;;;;;;;;;;24.30;99.90;;;;;;5135585;27;19911;-44
2023/06/24 09:10:52;;;;;;;;;;;24.30;99.90;;;;;;5116722;27;19911;-44
2023/06/24 09:13:18;;;;;;;;;;;24.20;99.90;;;;;;5135539;27;20023;-43
2023/06/24 09:15:43;;;;;;;;;;;24.20;99.90;;;;;;5135644;27;20413;-44
2023/06/24 09:18:10;;;;;;;;;;;24.20;99.90;;;;;;5134969;27;20007;-44
2023/06/24 09:20:40;;;;;;;;;;;24.30;99.90;;;;;;5135139;27;19912;-45
2023/06/24 09:23:06;;;;;;;;;;;24.40;99.90;;;;;;5134582;27;20436;-46
2023/06/24 09:25:32;;;;;;;;;;;24.50;99.90;;;;;;5134777;27;19943;-44
2023/06/24 09:28:01;;;;;;;;;;;24.60;99.90;;;;;;5135484;27;19953;-45
2023/06/24 09:30:26;;;;;;;;;;;24.70;99.90;;;;;;5134468;27;20273;-43
2023/06/24 09:32:53;;;;;;;;;;;24.80;99.70;;;;;;5135303;27;19914;-45
2023/06/24 09:35:22;;;;;;;;;;;25.00;99.90;;;;;;5134978;27;20262;-47
2023/06/24 09:37:48;;;;;;;;;;;25.00;99.40;;;;;;5134217;27;19970;-44
2023/06/24 09:40:14;;;;;;;;;;;25.00;99.70;;;;;;5135224;27;19914;-44
2023/06/24 09:42:47;;;;;;;;;;;25.10;99.90;;;;;;5135183;27;20403;-43
2023/06/24 09:45:13;;;;;;;;;;;25.20;99.90;;;;;;5134527;27;20002;-43
2023/06/24 09:47:38;;;;;;;;;;;25.20;98.40;;;;;;5135013;27;19999;-43
2023/06/24 09:50:04;;;;;;;;;;;25.20;99.70;;;;;;5134962;27;19914;-44
2023/06/24 09:52:30;;;;;;;;;;;25.20;99.90;;;;;;5133708;27;19934;-43
2023/06/24 09:54:57;;;;;;;;;;;25.30;99.90;;;;;;5135002;27;20325;-43
2023/06/24 09:57:28;;;;;;;;;;;25.40;99.90;;;;;;5134846;27;20366;-44
2023/06/24 09:59:54;;;;;;;;;;;25.40;99.80;;;;;;5134314;27;20002;-44
2023/06/24 10:02:20;;;;;;;;;;;25.60;99.40;;;;;;5134476;27;19981;-43
2023/06/24 10:04:46;;;;;;;;;;;25.60;98.90;;;;;;5134753;27;19907;-44
2023/06/24 10:07:12;;;;;;;;;;;25.60;99.00;;;;;;5124826;27;19919;-43
2023/06/24 10:09:38;;;;;;;;;;;25.70;98.70;;;;;;5121434;27;19915;-43
2023/06/24 10:12:04;;;;;;;;;;;25.70;97.40;;;;;;5132588;27;20034;-45
2023/06/24 10:14:30;;;;;;;;;;;25.80;98.90;;;;;;5132445;27;20353;-44
2023/06/24 10:17:03;;;;;;;;;;;25.90;97.80;;;;;;5133666;27;19922;-44
2023/06/24 10:19:28;;;;;;;;;;;26.00;98.50;;;;;;5133059;27;19911;-46
2023/06/24 10:21:59;;;;;;;;;;;26.10;98.20;;;;;;5132991;27;19952;-42
2023/06/24 10:24:28;;;;;;;;;;;25.90;95.30;;;;;;5128122;27;19911;-43
2023/06/24 10:26:53;;;;;;;;;;;25.70;96.20;;;;;;5121937;28;19920;-44
2023/06/24 10:29:30;;;;;;;;;;;25.50;97.20;;;;;;5119352;28;19918;-43
2023/06/24 10:31:55;;;;;;;;;;;25.50;96.30;;;;;;5126846;28;20013;-43
2023/06/24 10:34:23;;;;;;;;;;;25.60;95.80;;;;;;5132469;27;20006;-42
2023/06/24 10:36:55;;;;;;;;;;;25.60;95.20;;;;;;5137752;27;19912;-43
2023/06/24 10:39:39;;;;;;;;;;;25.50;95.90;;;;;;5137034;27;20496;-43
2023/06/24 10:42:23;;;;;;;;;;;25.40;97.50;;;;;;5137014;27;19997;-45
2023/06/24 10:44:49;;;;;;;;;;;25.30;97.10;;;;;;5137741;27;20011;-45
2023/06/24 10:47:15;;;;;;;;;;;25.40;97.60;;;;;;5137369;27;19933;-44
2023/06/24 10:49:40;;;;;;;;;;;25.50;95.30;;;;;;5136542;27;19907;-44
2023/06/24 10:52:09;;;;;;;;;;;25.60;95.90;;;;;;5136949;27;19923;-43
2023/06/24 10:54:36;;;;;;;;;;;25.80;94.90;;;;;;5137313;27;19907;-45
2023/06/24 10:57:02;;;;;;;;;;;25.80;92.50;;;;;;5136767;27;20361;-44
2023/06/24 10:59:28;;;;;;;;;;;25.90;94.70;;;;;;5137500;27;19914;-45
2023/06/24 11:01:53;;;;;;;;;;;26.20;94.20;;;;;;5136561;27;20285;-42
2023/06/24 11:04:19;;;;;;;;;;;26.20;95.80;;;;;;5136902;27;19965;-44
2023/06/24 11:06:58;;;;;;;;;;;26.20;94.50;;;;;;5130552;27;20006;-43
2023/06/24 11:09:23;;;;;;;;;;;26.40;94.40;;;;;;5116164;27;19916;-43
2023/06/24 11:11:49;;;;;;;;;;;26.50;93.70;;;;;;5124696;27;19972;-44
2023/06/24 11:14:19;;;;;;;;;;;26.70;93.00;;;;;;5125901;27;19911;-42
2023/06/24 11:16:47;;;;;;;;;;;26.80;93.60;;;;;;5115798;28;19915;-44
2023/06/24 11:19:13;;;;;;;;;;;26.90;92.10;;;;;;5116437;28;19915;-46
2023/06/24 11:21:38;;;;;;;;;;;27.00;92.30;;;;;;5116592;27;19911;-42
2023/06/24 11:24:05;;;;;;;;;;;27.00;92.70;;;;;;5119586;27;19913;-43
2023/06/24 11:26:32;;;;;;;;;;;27.10;91.90;;;;;;5121969;27;19915;-45
2023/06/24 11:28:57;;;;;;;;;;;27.00;91.20;;;;;;5136727;27;20289;-45
2023/06/24 11:31:25;;;;;;;;;;;26.80;92.30;;;;;;5135479;27;20010;-45
2023/06/24 11:33:51;;;;;;;;;;;26.80;91.70;;;;;;5136743;27;20016;-44
2023/06/24 11:36:20;;;;;;;;;;;26.70;92.30;;;;;;5138306;27;20361;-43
2023/06/24 11:38:45;;;;;;;;;;;26.70;92.20;;;;;;5138134;27;19967;-45
2023/06/24 11:41:11;;;;;;;;;;;26.80;91.60;;;;;;5138035;27;19958;-43
2023/06/24 11:43:36;;;;;;;;;;;26.90;92.60;;;;;;5136147;27;20357;-45
2023/06/24 11:46:02;;;;;;;;;;;27.20;93.30;;;;;;5126523;27;19915;-43
2023/06/24 11:48:28;;;;;;;;;;;27.30;91.90;;;;;;5126852;27;19908;-43
2023/06/24 11:50:57;;;;;;;;;;;27.40;93.70;;;;;;5115872;27;19963;-47
2023/06/24 11:53:29;;;;;;;;;;;27.60;91.50;;;;;;5124843;27;19911;-42
2023/06/24 11:55:56;;;;;;;;;;;27.70;92.00;;;;;;5130345;27;19915;-46
2023/06/24 11:58:21;;;;;;;;;;;27.80;91.80;;;;;;5133827;27;19964;-45
2023/06/24 12:00:48;;;;;;;;;;;27.60;89.00;;;;;;5133217;27;19915;-43
2023/06/24 12:03:14;;;;;;;;;;;27.70;90.80;;;;;;5130698;27;19927;-44
2023/06/24 12:05:44;;;;;;;;;;;27.70;90.00;;;;;;5129639;27;19945;-42
2023/06/24 12:08:11;;;;;;;;;;;27.80;91.80;;;;;;5124932;27;19964;-43
2023/06/24 12:10:37;;;;;;;;;;;28.00;90.00;;;;;;5130538;27;19955;-43
2023/06/24 12:13:03;;;;;;;;;;;28.20;88.60;;;;;;5124538;27;19919;-46
2023/06/24 12:15:29;;;;;;;;;;;28.10;89.10;;;;;;5123364;27;19911;-43
2023/06/24 12:17:55;;;;;;;;;;;28.00;89.00;;;;;;5131418;27;19917;-44
2023/06/24 12:20:21;;;;;;;;;;;27.90;91.20;;;;;;5120027;27;19974;-45
2023/06/24 12:22:47;;;;;;;;;;;27.70;90.80;;;;;;5126730;27;20404;-44
2023/06/24 12:25:13;;;;;;;;;;;27.80;90.30;;;;;;5130318;27;19911;-43
2023/06/24 12:27:39;;;;;;;;;;;27.90;86.40;;;;;;5124327;27;19918;-44
2023/06/24 12:30:06;;;;;;;;;;;28.20;88.70;;;;;;5113989;27;19911;-47
2023/06/24 12:32:31;;;;;;;;;;;28.40;87.90;;;;;;5119338;27;19966;-45
2023/06/24 12:34:57;;;;;;;;;;;28.60;91.20;;;;;;5124717;27;20003;-43
2023/06/24 12:37:22;;;;;;;;;;;28.60;88.10;;;;;;5122425;27;19915;-48
2023/06/24 12:39:50;;;;;;;;;;;28.50;86.30;;;;;;5131580;27;19918;-44
2023/06/24 12:42:16;;;;;;;;;;;28.60;90.20;;;;;;5127138;27;20373;-45
2023/06/24 12:44:42;;;;;;;;;;;28.60;88.80;;;;;;5136604;27;19911;-45
2023/06/24 12:47:07;;;;;;;;;;;28.50;90.10;;;;;;5135101;27;19911;-44
2023/06/24 12:49:33;;;;;;;;;;;28.40;88.90;;;;;;5135985;27;19919;-44
2023/06/24 12:51:58;;;;;;;;;;;28.60;88.50;;;;;;5134195;27;20345;-44
2023/06/24 12:54:24;;;;;;;;;;;28.90;90.30;;;;;;5134278;27;20092;-43
2023/06/24 12:56:49;;;;;;;;;;;29.20;90.60;;;;;;5132794;27;19953;-43
2023/06/24 12:59:15;;;;;;;;;;;29.40;90.80;;;;;;5125004;27;19912;-44
2023/06/24 13:01:44;;;;;;;;;;;29.80;85.90;;;;;;5124918;27;20435;-43
2023/06/24 13:04:10;;;;;;;;;;;30.00;86.20;;;;;;5134481;27;20362;-44
2023/06/24 13:06:35;;;;;;;;;;;29.80;93.00;;;;;;5131752;27;19923;-44
2023/06/24 13:09:01;;;;;;;;;;;29.70;88.40;;;;;;5122508;27;20318;-44
2023/06/24 13:11:27;;;;;;;;;;;30.10;87.00;;;;;;5133471;27;20319;-43
2023/06/24 13:13:52;;;;;;;;;;;29.90;84.20;;;;;;5134470;27;20007;-42
2023/06/24 13:16:18;;;;;;;;;;;29.50;91.90;;;;;;5133655;27;19953;-43
2023/06/24 13:18:43;;;;;;;;;;;29.10;86.70;;;;;;5133201;27;19922;-44
2023/06/24 13:21:10;;;;;;;;;;;28.70;86.40;;;;;;5134714;27;19908;-44
2023/06/24 13:23:37;;;;;;;;;;;28.50;85.00;;;;;;5132921;27;19907;-44
2023/06/24 13:26:03;;;;;;;;;;;28.20;90.20;;;;;;5135411;27;19934;-49
2023/06/24 13:28:28;;;;;;;;;;;28.00;90.60;;;;;;5133348;27;20353;-45
2023/06/24 13:30:54;;;;;;;;;;;27.90;90.20;;;;;;5124362;27;20022;-44
2023/06/24 13:33:20;;;;;;;;;;;27.90;90.50;;;;;;5124284;27;19911;-42
2023/06/24 13:35:45;;;;;;;;;;;27.90;90.90;;;;;;5132729;27;20002;-44
2023/06/24 13:38:12;;;;;;;;;;;28.00;89.90;;;;;;5122674;27;20636;-42
2023/06/24 13:40:37;;;;;;;;;;;28.30;89.90;;;;;;5134198;27;19914;-44
2023/06/24 13:43:03;;;;;;;;;;;28.60;93.10;;;;;;5129685;27;20283;-43
2023/06/24 13:45:28;;;;;;;;;;;28.90;90.30;;;;;;5121826;27;19918;-43
2023/06/24 13:47:55;;;;;;;;;;;29.00;90.00;;;;;;5114548;27;19907;-45
2023/06/24 13:50:20;;;;;;;;;;;29.20;86.90;;;;;;5113075;28;19962;-44
2023/06/24 13:52:46;;;;;;;;;;;29.40;87.10;;;;;;5111809;28;20335;-45
2023/06/24 13:55:11;;;;;;;;;;;29.50;87.10;;;;;;5113299;28;20277;-44
2023/06/24 13:57:37;;;;;;;;;;;29.40;87.10;;;;;;5112218;28;20365;-43
2023/06/24 14:00:02;;;;;;;;;;;29.30;87.90;;;;;;5112769;28;19954;-44
2023/06/24 14:02:28;;;;;;;;;;;29.10;88.20;;;;;;5112873;28;20104;-43
2023/06/24 14:04:53;;;;;;;;;;;29.00;89.10;;;;;;5111671;28;20417;-45
2023/06/24 14:07:19;;;;;;;;;;;28.80;91.80;;;;;;5127278;27;19912;-43
2023/06/24 14:09:45;;;;;;;;;;;28.70;91.10;;;;;;5131390;27;20379;-45
2023/06/24 14:12:10;;;;;;;;;;;28.60;89.50;;;;;;5131595;27;19915;-44